Time;durP1;ratioP1;P1;durP2;ratioP2;P2;SDS_P1;SDS_P2;PMS_P1;PMS_P2;Temp;Humidity;BMP_temperature;BMP_pressure;BME280_temperature;BME280_humidity;BME280_pressure;Samples;Min_cycle;Max_cycle;Signal;HPM_P1;HPM_P2
2022/11/19 00:01:11;;;;;;;105.15;29.52;;;;;;;11.30;100.00;98624.00;5030377;28;19909;-36
2022/11/19 00:03:38;;;;;;;105.60;30.83;;;;;;;11.25;100.00;98609.78;5030427;28;20033;-36
2022/11/19 00:06:07;;;;;;;114.40;31.77;;;;;;;11.38;100.00;98604.19;5030195;28;20522;-38
2022/11/19 00:08:33;;;;;;;114.78;32.05;;;;;;;11.43;100.00;98603.47;5030224;28;20029;-37
2022/11/19 00:14:04;;;;;;;110.15;33.05;;;;;;;11.26;100.00;98622.06;5030557;28;20421;-37
2022/11/19 00:16:30;;;;;;;114.05;32.13;;;;;;;11.33;100.00;98615.56;5030293;28;20038;-37
2022/11/19 00:18:55;;;;;;;122.90;32.45;;;;;;;11.27;100.00;98621.81;5030079;28;20032;-37
2022/11/19 00:21:20;;;;;;;118.03;31.35;;;;;;;11.24;100.00;98618.81;5030144;28;20401;-37
2022/11/19 00:23:46;;;;;;;112.35;31.98;;;;;;;11.23;100.00;98614.53;5030852;28;20104;-38
2022/11/19 00:26:13;;;;;;;112.40;31.25;;;;;;;11.16;100.00;98604.03;5030573;28;20025;-38
2022/11/19 00:28:40;;;;;;;102.22;29.35;;;;;;;11.16;100.00;98622.66;5030835;28;20082;-38
2022/11/19 00:31:11;;;;;;;101.05;28.42;;;;;;;11.18;100.00;98625.91;5030296;28;20231;-37
2022/11/19 00:33:37;;;;;;;103.45;28.35;;;;;;;11.25;100.00;98620.41;5030231;28;20116;-37
2022/11/19 00:36:05;;;;;;;92.95;26.55;;;;;;;11.14;100.00;98619.41;5030451;28;20037;-37
2022/11/19 00:38:31;;;;;;;106.80;28.48;;;;;;;11.24;100.00;98640.94;5030399;28;20035;-37
2022/11/19 00:40:57;;;;;;;97.30;27.48;;;;;;;11.04;100.00;98641.31;5030729;28;20056;-37
2022/11/19 00:46:07;;;;;;;95.97;26.73;;;;;;;10.95;100.00;98661.34;5030662;28;20036;-37
2022/11/19 00:48:33;;;;;;;84.35;25.48;;;;;;;11.03;100.00;98654.84;5030005;28;20025;-38
2022/11/19 00:50:58;;;;;;;88.75;26.88;;;;;;;10.96;100.00;98649.63;5029936;28;20112;-37
2022/11/19 00:53:24;;;;;;;77.22;25.55;;;;;;;11.06;100.00;98657.88;5029908;28;20036;-37
2022/11/19 00:55:50;;;;;;;86.82;24.95;;;;;;;10.86;100.00;98665.38;5030226;28;20029;-37
2022/11/19 00:58:16;;;;;;;97.50;25.63;;;;;;;10.96;100.00;98666.41;5029656;28;20099;-37
2022/11/19 01:00:42;;;;;;;83.65;24.77;;;;;;;10.91;100.00;98676.97;5029799;28;20029;-37
2022/11/19 01:03:07;;;;;;;84.35;24.52;;;;;;;11.04;100.00;98664.44;5030131;28;20034;-37
2022/11/19 01:05:32;;;;;;;76.72;23.95;;;;;;;11.03;100.00;98666.31;5030170;28;20030;-37
2022/11/19 01:07:58;;;;;;;77.80;24.75;;;;;;;11.14;100.00;98678.81;5029733;28;20029;-37
2022/11/19 01:10:23;;;;;;;76.97;24.08;;;;;;;11.16;100.00;98675.91;5029747;28;20053;-37
2022/11/19 01:15:33;;;;;;;71.60;23.48;;;;;;;11.20;100.00;98676.25;5029131;28;20040;-37
2022/11/19 01:17:58;;;;;;;75.90;24.67;;;;;;;11.06;100.00;98681.00;5029775;28;20026;-37
2022/11/19 01:20:24;;;;;;;74.35;24.45;;;;;;;11.05;100.00;98690.03;5029517;28;20024;-37
2022/11/19 01:22:49;;;;;;;70.82;23.08;;;;;;;10.92;100.00;98697.19;5029516;28;20509;-38
2022/11/19 01:25:15;;;;;;;63.28;22.45;;;;;;;10.84;100.00;98707.41;5029450;28;20033;-37
2022/11/19 01:27:40;;;;;;;63.90;22.33;;;;;;;10.86;100.00;98724.75;5030095;28;20032;-37
2022/11/19 01:30:07;;;;;;;67.18;23.48;;;;;;;10.89;100.00;98716.31;5029223;28;20022;-37
2022/11/19 01:32:32;;;;;;;67.13;22.63;;;;;;;10.60;100.00;98719.84;5029699;28;20406;-37
2022/11/19 01:34:58;;;;;;;71.32;23.63;;;;;;;10.56;100.00;98720.28;5029578;28;20070;-37
2022/11/19 01:37:23;;;;;;;66.68;23.05;;;;;;;10.62;100.00;98741.72;5029573;28;20021;-37
2022/11/19 01:39:49;;;;;;;62.38;23.23;;;;;;;10.74;100.00;98758.53;5032734;28;20052;-37
2022/11/19 01:42:48;;;;;;;62.10;22.95;;;;;;;10.77;100.00;98763.38;5032982;28;20578;-37
2022/11/19 01:45:27;;;;;;;58.58;23.27;;;;;;;10.87;100.00;98773.44;5033076;28;20060;-37
2022/11/19 01:47:53;;;;;;;63.20;23.48;;;;;;;10.87;100.00;98776.13;5033339;28;20135;-37
2022/11/19 01:50:21;;;;;;;58.17;22.98;;;;;;;10.86;100.00;98767.31;5032690;28;20021;-37
2022/11/19 01:52:47;;;;;;;59.72;23.67;;;;;;;10.83;100.00;98762.44;5032847;28;20033;-37
2022/11/19 01:55:13;;;;;;;53.45;22.50;;;;;;;10.86;100.00;98772.66;5033252;28;20090;-37
2022/11/19 01:57:39;;;;;;;52.47;21.65;;;;;;;10.82;100.00;98782.13;5032846;28;20149;-37
2022/11/19 02:00:06;;;;;;;58.97;23.90;;;;;;;11.02;99.98;98791.66;5032872;28;20121;-37
2022/11/19 02:02:33;;;;;;;54.03;22.33;;;;;;;11.14;99.81;98787.97;5032937;28;20430;-37
2022/11/19 02:05:00;;;;;;;55.63;24.10;;;;;;;11.08;99.79;98793.41;5032526;28;20328;-37
2022/11/19 02:07:28;;;;;;;57.25;23.27;;;;;;;11.03;99.75;98803.94;5032852;28;20090;-37
2022/11/19 02:10:04;;;;;;;54.40;23.08;;;;;;;11.06;100.00;98801.63;5032434;28;20025;-37
2022/11/19 02:12:43;;;;;;;52.58;22.80;;;;;;;11.06;99.87;98806.97;5032779;28;20018;-37
2022/11/19 02:15:12;;;;;;;50.85;22.70;;;;;;;11.04;100.00;98819.69;5032698;28;20151;-37
2022/11/19 02:18:09;;;;;;;52.65;22.83;;;;;;;11.01;100.00;98806.03;5032504;28;20091;-38
2022/11/19 02:20:40;;;;;;;53.10;22.48;;;;;;;11.09;100.00;98803.81;5032403;28;20038;-37
2022/11/19 02:23:23;;;;;;;55.58;24.00;;;;;;;11.23;99.17;98790.28;5032043;28;20471;-37
2022/11/19 02:26:23;;;;;;;47.88;21.67;;;;;;;11.02;99.84;98770.34;5032799;28;20037;-37
2022/11/19 02:29:28;;;;;;;52.58;22.85;;;;;;;11.10;100.00;98788.66;5032412;28;20026;-37
2022/11/19 02:32:02;;;;;;;45.58;22.13;;;;;;;11.04;100.00;98773.59;5032222;28;20519;-37
2022/11/19 02:34:37;;;;;;;43.83;20.88;;;;;;;10.90;100.00;98770.34;5032272;28;20030;-37
2022/11/19 02:37:14;;;;;;;47.20;21.30;;;;;;;11.13;100.00;98767.69;5032653;28;20645;-37
2022/11/19 02:39:45;;;;;;;46.33;20.95;;;;;;;11.16;99.35;98774.44;5032232;28;20125;-37
2022/11/19 02:42:10;;;;;;;41.50;20.52;;;;;;;11.01;98.78;98772.22;5032075;28;20481;-37
2022/11/19 02:45:01;;;;;;;41.97;20.75;;;;;;;10.99;97.97;98771.63;5031864;28;20044;-37
2022/11/19 02:47:51;;;;;;;41.10;20.93;;;;;;;10.83;99.28;98774.97;5031946;28;20033;-38
2022/11/19 02:50:20;;;;;;;40.53;20.08;;;;;;;10.70;100.00;98752.84;5031115;28;20495;-37
2022/11/19 02:52:47;;;;;;;43.45;20.58;;;;;;;10.84;99.45;98782.72;5031987;28;20167;-36
2022/11/19 02:55:14;;;;;;;40.28;19.58;;;;;;;10.81;99.44;98787.69;5032134;28;20029;-37
2022/11/19 02:57:42;;;;;;;37.80;19.95;;;;;;;10.80;99.32;98784.22;5031842;28;20137;-36
2022/11/19 03:04:28;;;;;;;41.60;19.38;;;;;;;11.18;97.79;98788.34;5031917;28;20032;-37
2022/11/19 03:06:13;;;;;;;38.42;19.48;;;;;;;11.14;96.71;98785.31;5031056;28;20505;-37
2022/11/19 03:08:38;;;;;;;37.67;18.63;;;;;;;11.17;96.59;98785.88;5031463;28;20033;-37
2022/11/19 03:11:25;;;;;;;37.47;19.08;;;;;;;11.13;97.72;98786.34;5031660;28;20707;-36
2022/11/19 03:17:20;;;;;;;34.92;18.75;;;;;;;11.12;99.01;98787.41;5030500;28;20531;-39
2022/11/19 03:20:03;;;;;;;30.25;17.95;;;;;;;11.44;98.59;98795.06;5031257;28;20018;-36
2022/11/19 03:22:46;;;;;;;35.65;18.90;;;;;;;11.83;95.06;98798.03;5031004;28;20052;-36
2022/11/19 03:25:17;;;;;;;35.83;19.40;;;;;;;11.66;95.95;98824.56;5031182;28;20415;-36
2022/11/19 03:27:59;;;;;;;38.67;19.80;;;;;;;11.48;97.23;98835.34;5031314;28;20025;-37
2022/11/19 03:30:28;;;;;;;39.47;19.92;;;;;;;11.41;96.65;98832.81;5031034;28;20052;-37
2022/11/19 03:32:59;;;;;;;37.80;19.70;;;;;;;11.48;97.24;98838.84;5031602;28;20503;-37
2022/11/19 03:35:48;;;;;;;42.50;21.10;;;;;;;11.60;96.55;98844.16;5031293;28;20366;-36
2022/11/19 03:38:22;;;;;;;38.75;20.20;;;;;;;11.46;97.70;98861.41;5031263;28;20456;-37
2022/11/19 03:40:49;;;;;;;43.92;20.92;;;;;;;11.59;96.75;98863.03;5031158;28;20025;-37
2022/11/19 03:43:19;;;;;;;38.95;21.48;;;;;;;11.60;96.34;98868.16;5031645;28;20021;-36
2022/11/19 03:45:47;;;;;;;44.75;22.92;;;;;;;11.42;97.83;98881.56;5030858;28;20500;-37
2022/11/19 03:48:15;;;;;;;42.13;21.55;;;;;;;11.37;97.27;98878.78;5031143;28;20017;-36
2022/11/19 03:50:55;;;;;;;40.55;19.20;;;;;;;11.27;96.80;98882.00;5030886;28;20041;-37
2022/11/19 03:53:21;;;;;;;41.27;20.67;;;;;;;11.19;97.82;98874.34;5030866;28;20034;-37
2022/11/19 03:55:53;;;;;;;44.92;21.25;;;;;;;11.29;97.52;98888.75;5031046;28;20068;-37
2022/11/19 03:58:22;;;;;;;44.40;21.60;;;;;;;11.28;97.04;98908.41;5031149;28;20033;-36
2022/11/19 04:00:47;;;;;;;47.70;22.05;;;;;;;11.31;96.43;98907.16;5030348;28;20017;-36
2022/11/19 04:03:12;;;;;;;46.13;21.63;;;;;;;11.21;97.01;98906.88;5030918;28;20612;-36
2022/11/19 04:05:38;;;;;;;47.60;22.67;;;;;;;11.28;97.37;98907.59;5031028;28;20025;-37
2022/11/19 04:08:03;;;;;;;44.28;21.40;;;;;;;11.03;98.52;98913.91;5030813;28;20028;-36
2022/11/19 04:10:29;;;;;;;48.83;21.83;;;;;;;11.08;98.59;98910.53;5030648;28;20028;-37
2022/11/19 04:12:54;;;;;;;48.92;22.85;;;;;;;10.99;100.00;98911.94;5030497;28;20102;-37
2022/11/19 04:15:20;;;;;;;50.25;21.67;;;;;;;10.84;99.94;98907.81;5030483;28;20061;-37
2022/11/19 04:17:46;;;;;;;51.40;22.63;;;;;;;10.96;100.00;98903.31;5031080;28;20087;-36
2022/11/19 04:20:11;;;;;;;58.42;23.95;;;;;;;11.14;99.12;98899.00;5030481;28;20023;-37
2022/11/19 04:22:36;;;;;;;50.95;22.75;;;;;;;11.10;98.12;98916.44;5030476;28;20049;-36
2022/11/19 04:25:02;;;;;;;52.20;23.33;;;;;;;11.08;99.11;98935.34;5030725;28;20037;-36
2022/11/19 04:27:28;;;;;;;52.42;22.60;;;;;;;11.17;97.68;98935.81;5030504;28;20079;-37
2022/11/19 04:29:53;;;;;;;55.50;23.65;;;;;;;11.00;99.14;98932.16;5030764;28;20101;-37
2022/11/19 04:32:19;;;;;;;58.05;23.90;;;;;;;11.06;99.10;98944.56;5030508;28;20457;-37
2022/11/19 04:34:44;;;;;;;52.17;23.85;;;;;;;11.13;98.34;98934.66;5030440;28;20103;-37
2022/11/19 04:37:09;;;;;;;55.03;23.73;;;;;;;11.00;98.27;98940.16;5030526;28;20045;-37
2022/11/19 04:39:35;;;;;;;53.63;21.65;;;;;;;10.82;99.67;98941.03;5030843;28;20091;-36
2022/11/19 04:42:00;;;;;;;45.63;21.25;;;;;;;10.84;99.75;98939.75;5030613;28;20021;-37
2022/11/19 04:44:26;;;;;;;46.95;21.52;;;;;;;10.80;100.00;98948.41;5030481;28;20327;-37
2022/11/19 04:46:51;;;;;;;51.17;23.98;;;;;;;10.88;99.37;98956.88;5030401;28;20025;-37
2022/11/19 04:49:16;;;;;;;52.83;23.50;;;;;;;11.03;97.93;98950.38;5030284;28;20076;-37
2022/11/19 04:51:42;;;;;;;48.60;23.20;;;;;;;10.94;99.06;98953.31;5030308;28;20030;-37
2022/11/19 04:54:07;;;;;;;52.35;21.83;;;;;;;10.98;97.33;98953.69;5030041;28;20079;-37
2022/11/19 04:56:34;;;;;;;48.42;20.67;;;;;;;10.82;98.32;98951.66;5030162;28;20418;-36
2022/11/19 04:58:59;;;;;;;53.78;23.00;;;;;;;10.90;98.01;98972.66;5030113;28;20020;-36
2022/11/19 05:01:25;;;;;;;48.47;21.63;;;;;;;10.98;96.43;98972.31;5030341;28;20017;-37
2022/11/19 05:03:51;;;;;;;45.22;21.35;;;;;;;10.85;96.91;98968.00;5029985;28;20477;-37
2022/11/19 05:06:17;;;;;;;48.20;21.90;;;;;;;10.86;97.05;98974.94;5030405;28;20036;-37
2022/11/19 05:08:42;;;;;;;49.75;22.05;;;;;;;10.70;98.52;98970.22;5030448;28;20017;-38
2022/11/19 05:11:07;;;;;;;53.63;23.70;;;;;;;10.82;98.88;98979.09;5030064;28;20462;-36
2022/11/19 05:13:33;;;;;;;50.50;22.25;;;;;;;10.61;98.13;98982.22;5031450;28;20013;-36
2022/11/19 05:15:58;;;;;;;46.63;22.30;;;;;;;10.61;98.69;99003.50;5034031;28;20022;-36
2022/11/19 05:18:24;;;;;;;61.15;23.55;;;;;;;10.50;100.00;99005.03;5033833;28;20029;-36
2022/11/19 05:20:49;;;;;;;58.65;23.48;;;;;;;10.83;98.35;98996.66;5033432;28;20021;-36
2022/11/19 05:23:14;;;;;;;56.75;24.50;;;;;;;10.95;97.17;99004.75;5033477;28;20171;-37
2022/11/19 05:25:40;;;;;;;59.88;24.33;;;;;;;10.73;97.68;99009.69;5033532;28;20029;-37
2022/11/19 05:28:05;;;;;;;57.63;25.17;;;;;;;10.67;98.54;99015.91;5033277;28;20135;-37
2022/11/19 05:30:31;;;;;;;70.43;29.98;;;;;;;10.58;98.90;99031.34;5032525;28;20041;-36
2022/11/19 05:32:56;;;;;;;88.80;32.58;;;;;;;10.74;99.07;99029.97;5033201;28;20083;-36
2022/11/19 05:35:22;;;;;;;107.78;33.47;;;;;;;10.69;100.00;99022.63;5033497;28;20057;-36
2022/11/19 05:37:48;;;;;;;86.85;32.53;;;;;;;10.42;100.00;99022.09;5033559;28;20022;-37
2022/11/19 05:40:14;;;;;;;116.70;46.05;;;;;;;10.36;100.00;99029.09;5033301;28;20342;-37
2022/11/19 05:42:39;;;;;;;98.10;40.90;;;;;;;10.60;100.00;99041.78;5033401;28;20120;-37
2022/11/19 05:45:05;;;;;;;152.70;68.30;;;;;;;10.57;100.00;99048.34;5033298;28;20039;-37
2022/11/19 05:47:31;;;;;;;87.82;35.03;;;;;;;10.44;100.00;99051.16;5033126;28;20020;-37
2022/11/19 05:49:56;;;;;;;80.07;30.98;;;;;;;10.34;100.00;99062.28;5032042;28;20105;-36
2022/11/19 05:52:22;;;;;;;83.25;34.53;;;;;;;10.48;100.00;99068.28;5027207;28;20037;-36
2022/11/19 05:54:47;;;;;;;78.10;31.75;;;;;;;10.49;100.00;99070.72;5027522;28;20032;-37
2022/11/19 05:57:12;;;;;;;70.35;28.92;;;;;;;10.39;100.00;99066.94;5028835;28;20346;-37
2022/11/19 05:59:38;;;;;;;70.97;30.02;;;;;;;10.45;100.00;99080.19;5032230;28;20125;-37
2022/11/19 06:02:03;;;;;;;72.97;29.17;;;;;;;10.57;99.80;99083.75;5027697;28;20156;-37
2022/11/19 06:04:29;;;;;;;64.03;29.00;;;;;;;10.65;99.10;99101.28;5030899;28;20100;-37
2022/11/19 06:06:55;;;;;;;59.60;28.00;;;;;;;10.44;100.00;99099.03;5032885;28;20021;-37
2022/11/19 06:09:21;;;;;;;60.72;27.35;;;;;;;10.35;100.00;99119.75;5032860;28;20034;-37
2022/11/19 06:11:46;;;;;;;59.90;28.15;;;;;;;10.29;100.00;99116.06;5033181;28;20032;-36
2022/11/19 06:14:11;;;;;;;55.72;27.08;;;;;;;10.37;100.00;99120.34;5033395;28;20549;-37
2022/11/19 06:16:37;;;;;;;49.35;24.65;;;;;;;10.24;100.00;99137.19;5032565;28;20506;-37
2022/11/19 06:19:02;;;;;;;50.13;24.75;;;;;;;10.10;100.00;99136.47;5032347;28;20017;-37
2022/11/19 06:21:28;;;;;;;102.88;54.22;;;;;;;10.18;100.00;99130.91;5032739;28;20465;-37
2022/11/19 06:23:53;;;;;;;47.95;24.65;;;;;;;10.39;100.00;99118.28;5030130;28;20064;-36
2022/11/19 06:26:24;;;;;;;45.08;24.48;;;;;;;10.27;100.00;99130.63;5032901;28;20035;-36
2022/11/19 06:28:49;;;;;;;45.58;23.50;;;;;;;10.15;100.00;99126.00;5032361;28;20045;-36
2022/11/19 06:31:15;;;;;;;40.78;22.70;;;;;;;10.24;100.00;99128.41;5032047;28;20064;-36
2022/11/19 06:33:40;;;;;;;40.08;22.55;;;;;;;10.33;100.00;99133.25;5032587;28;20493;-36
2022/11/19 06:36:06;;;;;;;45.13;24.23;;;;;;;10.37;100.00;99141.63;5031706;28;20473;-36
2022/11/19 06:38:31;;;;;;;39.75;22.92;;;;;;;10.31;100.00;99139.84;5030108;28;20025;-37
2022/11/19 06:40:56;;;;;;;42.33;24.00;;;;;;;10.44;99.80;99145.06;5030915;28;20113;-36
2022/11/19 06:43:22;;;;;;;41.50;23.27;;;;;;;10.28;100.00;99148.19;5031025;28;20025;-37
2022/11/19 06:45:47;;;;;;;45.55;24.08;;;;;;;10.38;100.00;99145.94;5031203;28;20132;-38
2022/11/19 06:48:13;;;;;;;73.38;41.33;;;;;;;10.37;100.00;99150.41;5031503;28;20025;-35
2022/11/19 06:50:38;;;;;;;69.78;36.50;;;;;;;10.43;100.00;99163.88;5030277;28;20022;-36
2022/11/19 06:53:04;;;;;;;44.42;23.42;;;;;;;10.51;100.00;99161.78;5041987;28;20016;-37
2022/11/19 06:55:29;;;;;;;44.72;25.35;;;;;;;10.63;100.00;99155.75;5021460;28;20022;-38
2022/11/19 06:57:56;;;;;;;39.20;23.23;;;;;;;10.78;100.00;99153.56;5011494;28;20052;-37
2022/11/19 07:00:22;;;;;;;42.97;23.02;;;;;;;10.71;100.00;99147.47;5019789;28;20024;-37
2022/11/19 07:02:47;;;;;;;42.28;19.67;;;;;;;10.96;100.00;99155.44;5030522;28;20029;-36
2022/11/19 07:05:13;;;;;;;46.53;26.38;;;;;;;11.74;95.81;99170.72;5031095;28;20079;-37
2022/11/19 07:07:38;;;;;;;38.83;22.05;;;;;;;11.36;94.81;99155.00;5031700;28;20025;-37
2022/11/19 07:10:04;;;;;;;40.90;22.83;;;;;;;11.03;98.31;99156.19;5030736;28;20026;-37
2022/11/19 07:12:29;;;;;;;38.42;22.23;;;;;;;11.22;97.88;99167.66;5031434;28;20098;-37
2022/11/19 07:14:55;;;;;;;37.08;21.58;;;;;;;11.09;96.65;99178.44;5031148;28;20028;-37
2022/11/19 07:17:20;;;;;;;41.58;24.02;;;;;;;11.50;100.00;99177.81;5029963;28;20029;-37
2022/11/19 07:19:45;;;;;;;39.35;23.55;;;;;;;11.69;97.37;99186.59;5029333;28;20441;-37
2022/11/19 07:22:11;;;;;;;37.58;21.90;;;;;;;11.89;98.01;99189.03;5029831;28;20469;-36
2022/11/19 07:24:36;;;;;;;37.80;23.00;;;;;;;11.79;94.99;99185.25;5030144;28;20193;-36
2022/11/19 07:27:01;;;;;;;35.95;21.25;;;;;;;11.88;93.88;99178.53;5030270;28;20507;-37
2022/11/19 07:29:28;;;;;;;38.10;21.80;;;;;;;11.88;95.58;99184.72;5030422;28;20041;-37
2022/11/19 07:31:53;;;;;;;36.13;21.40;;;;;;;11.96;94.38;99159.63;5029462;28;20036;-38
2022/11/19 07:34:20;;;;;;;44.72;23.02;;;;;;;12.70;92.67;99194.00;5029905;28;20084;-37
2022/11/19 07:36:46;;;;;;;42.28;24.42;;;;;;;12.95;91.25;99182.31;5028752;28;20103;-37
2022/11/19 07:39:12;;;;;;;36.20;20.90;;;;;;;13.40;90.84;99182.53;5030038;28;20109;-38
2022/11/19 07:44:21;;;;;;;64.00;38.67;;;;;;;14.03;85.07;99198.69;5029509;28;20059;-37
2022/11/19 07:46:49;;;;;;;37.13;22.13;;;;;;;14.27;87.01;99207.44;5029462;28;20537;-37
2022/11/19 07:49:15;;;;;;;31.98;19.92;;;;;;;14.17;81.28;99208.06;5030190;28;20117;-38
2022/11/19 07:51:40;;;;;;;37.25;20.92;;;;;;;14.41;80.96;99203.41;5030108;28;20017;-37
2022/11/19 07:54:08;;;;;;;37.90;23.38;;;;;;;14.57;81.97;99209.06;5030544;28;20389;-37
2022/11/19 07:56:33;;;;;;;42.17;25.70;;;;;;;14.77;81.97;99214.72;5030184;28;20431;-37
2022/11/19 07:58:59;;;;;;;37.55;22.40;;;;;;;15.04;79.52;99219.41;5030629;28;20021;-38
2022/11/19 08:01:25;;;;;;;30.98;20.23;;;;;;;15.00;77.71;99213.75;5029221;28;20033;-38
2022/11/19 08:03:52;;;;;;;28.00;19.02;;;;;;;15.03;75.79;99217.81;5030239;28;20033;-37
2022/11/19 08:06:18;;;;;;;31.80;19.85;;;;;;;15.15;75.32;99237.25;5029976;28;20083;-37
2022/11/19 08:08:44;;;;;;;32.08;19.98;;;;;;;15.33;75.15;99227.34;5029550;28;20045;-37
2022/11/19 08:11:11;;;;;;;33.08;19.95;;;;;;;15.38;74.92;99230.91;5029568;28;20061;-37
2022/11/19 08:13:38;;;;;;;36.40;21.48;;;;;;;15.32;75.61;99233.75;5030313;28;20075;-37
2022/11/19 08:16:12;;;;;;;34.58;20.30;;;;;;;15.62;75.10;99226.13;5030055;28;20476;-37
2022/11/19 08:18:38;;;;;;;36.17;21.27;;;;;;;15.88;72.84;99218.41;5030310;28;20031;-37
2022/11/19 08:21:09;;;;;;;38.45;22.52;;;;;;;15.87;72.79;99227.53;5029742;28;20100;-38
2022/11/19 08:23:37;;;;;;;35.88;22.90;;;;;;;15.76;73.45;99221.25;5029983;28;20046;-38
2022/11/19 08:26:03;;;;;;;44.55;24.30;;;;;;;15.72;73.28;99213.91;5030259;28;20551;-37
2022/11/19 08:28:28;;;;;;;39.65;23.75;;;;;;;16.04;73.20;99222.06;5030078;28;20033;-38
2022/11/19 08:30:54;;;;;;;41.15;23.40;;;;;;;16.22;72.09;99228.97;5029678;28;20041;-37
2022/11/19 08:33:20;;;;;;;44.83;24.27;;;;;;;16.02;73.93;99226.88;5030017;28;20680;-37
2022/11/19 08:35:45;;;;;;;43.22;22.77;;;;;;;16.47;72.51;99222.22;5030058;28;20029;-36
2022/11/19 08:38:11;;;;;;;38.63;22.13;;;;;;;17.10;70.49;99236.75;5029805;28;20057;-36
2022/11/19 08:40:36;;;;;;;45.65;23.67;;;;;;;17.25;69.89;99245.97;5028437;28;20017;-38
2022/11/19 08:43:02;;;;;;;39.40;22.50;;;;;;;17.27;69.15;99246.50;5029722;28;20018;-36
2022/11/19 08:45:33;;;;;;;41.95;22.27;;;;;;;17.83;66.95;99252.19;5029943;28;20060;-36
2022/11/19 08:48:00;;;;;;;39.65;23.48;;;;;;;17.76;67.16;99267.75;5032103;28;20029;-37
2022/11/19 08:50:27;;;;;;;42.42;22.83;;;;;;;17.55;67.91;99265.00;5033686;28;20026;-37
2022/11/19 08:52:57;;;;;;;35.88;21.27;;;;;;;17.69;66.48;99256.44;5033787;28;20033;-37
2022/11/19 08:55:22;;;;;;;34.88;21.65;;;;;;;17.63;66.57;99269.06;5034127;28;20025;-37
2022/11/19 08:57:48;;;;;;;35.75;21.90;;;;;;;17.64;65.78;99265.28;5033900;28;20029;-37
2022/11/19 09:00:14;;;;;;;34.92;20.70;;;;;;;17.25;69.29;99271.00;5033659;28;20029;-37
2022/11/19 09:02:40;;;;;;;37.55;22.88;;;;;;;17.39;67.57;99265.97;5032190;28;20338;-36
2022/11/19 09:05:06;;;;;;;36.10;22.25;;;;;;;16.98;68.82;99262.97;5034088;28;20045;-38
2022/11/19 09:07:31;;;;;;;39.97;22.80;;;;;;;16.84;68.80;99261.81;5034275;28;20033;-37
2022/11/19 09:09:57;;;;;;;34.65;22.13;;;;;;;16.30;71.15;99255.38;5033660;28;20117;-37
2022/11/19 09:12:22;;;;;;;35.78;21.60;;;;;;;16.34;72.20;99255.69;5033501;28;20033;-37
2022/11/19 09:14:49;;;;;;;33.33;20.65;;;;;;;16.24;72.52;99237.59;5033208;28;20501;-36
2022/11/19 09:17:15;;;;;;;36.80;21.30;;;;;;;16.30;71.54;99241.94;5033833;28;20052;-37
2022/11/19 09:19:40;;;;;;;34.40;20.67;;;;;;;16.17;73.11;99245.84;5033723;28;20442;-39
2022/11/19 09:22:05;;;;;;;34.83;22.08;;;;;;;15.79;73.44;99249.44;5033588;28;20155;-37
2022/11/19 09:24:31;;;;;;;34.97;21.02;;;;;;;15.62;73.44;99252.94;5033026;28;20118;-36
2022/11/19 09:26:56;;;;;;;29.73;19.73;;;;;;;15.68;74.73;99248.44;5033344;28;20036;-40
2022/11/19 09:29:22;;;;;;;32.42;20.63;;;;;;;15.48;75.37;99243.66;5033431;28;20053;-37
2022/11/19 09:31:47;;;;;;;32.78;19.77;;;;;;;15.17;76.35;99231.66;5032601;28;20025;-37
2022/11/19 09:34:12;;;;;;;26.20;17.80;;;;;;;15.75;74.37;99234.91;5031502;28;20032;-37
2022/11/19 09:36:38;;;;;;;26.85;17.15;;;;;;;15.69;75.17;99236.69;5032486;28;20508;-37
2022/11/19 09:39:03;;;;;;;26.20;16.85;;;;;;;15.80;74.98;99232.25;5032512;28;20036;-37
2022/11/19 09:41:42;;;;;;;24.95;16.58;;;;;;;15.81;75.43;99228.53;5032216;28;20021;-37
2022/11/19 09:44:26;;;;;;;24.77;16.38;;;;;;;15.86;76.58;99241.19;5032557;28;20489;-36
2022/11/19 09:47:04;;;;;;;26.35;16.15;;;;;;;16.09;73.99;99229.34;5032214;28;20164;-37
2022/11/19 09:49:38;;;;;;;25.70;16.77;;;;;;;16.31;71.28;99214.03;5032143;28;20026;-37
2022/11/19 09:52:12;;;;;;;25.83;16.40;;;;;;;16.23;73.39;99217.97;5033012;28;20400;-37
2022/11/19 09:54:45;;;;;;;27.45;17.25;;;;;;;16.27;71.80;99206.75;5032746;28;20033;-37
2022/11/19 09:57:17;;;;;;;29.88;16.98;;;;;;;16.42;71.55;99201.50;5032192;28;20091;-37
2022/11/19 09:59:43;;;;;;;25.92;16.60;;;;;;;16.45;70.10;99202.88;5031594;28;20045;-36
2022/11/19 10:02:16;;;;;;;27.65;17.67;;;;;;;16.27;71.15;99209.44;5032469;28;20500;-37
2022/11/19 10:04:43;;;;;;;26.92;17.27;;;;;;;16.05;72.57;99199.56;5032183;28;20037;-37
2022/11/19 10:07:26;;;;;;;26.48;17.17;;;;;;;15.98;72.21;99191.69;5031740;28;20409;-36
2022/11/19 10:09:51;;;;;;;28.98;17.63;;;;;;;16.20;72.60;99188.13;5032129;28;20033;-36
2022/11/19 10:12:36;;;;;;;28.52;17.20;;;;;;;16.13;74.09;99184.88;5032153;28;20108;-36
2022/11/19 10:15:05;;;;;;;29.08;16.88;;;;;;;16.67;72.94;99195.53;5031704;28;20029;-37
2022/11/19 10:17:36;;;;;;;26.67;17.52;;;;;;;17.20;70.51;99203.72;5032033;28;20124;-37
2022/11/19 10:20:23;;;;;;;27.48;18.33;;;;;;;17.27;69.16;99200.78;5030753;28;20040;-38
2022/11/19 10:22:53;;;;;;;29.23;17.08;;;;;;;17.25;68.92;99200.25;5032452;28;20085;-37
2022/11/19 10:25:22;;;;;;;;;;;;;;;17.35;68.07;99197.63;5033126;28;20108;-37
2022/11/19 10:27:53;;;;;;;26.83;17.23;;;;;;;17.20;68.66;99193.78;5032377;28;19923;-38
2022/11/19 10:30:22;;;;;;;32.10;17.88;;;;;;;17.31;70.18;99185.78;5032704;28;20021;-43
2022/11/19 10:33:12;;;;;;;25.47;16.87;;;;;;;17.51;68.01;99190.44;5033060;28;20021;-43
2022/11/19 10:35:53;;;;;;;25.63;17.33;;;;;;;17.75;70.13;99182.75;5033238;28;20504;-45
2022/11/19 10:38:21;;;;;;;;;;;;;;;18.23;68.98;99186.09;5032550;28;20179;-44
2022/11/19 10:40:57;;;;;;;25.73;17.10;;;;;;;18.39;66.68;99188.81;5031559;28;20324;-44
2022/11/19 10:43:31;;;;;;;24.75;16.33;;;;;;;18.16;69.06;99181.00;5032792;28;20382;-44
2022/11/19 10:45:59;;;;;;;22.73;14.68;;;;;;;18.19;65.90;99179.63;5032636;28;20029;-42
2022/11/19 10:48:42;;;;;;;21.03;14.30;;;;;;;18.27;65.46;99175.59;5031144;28;20053;-43
2022/11/19 10:51:28;;;;;;;16.33;11.02;;;;;;;18.50;63.92;99169.69;5032176;28;20112;-42
2022/11/19 10:53:54;;;;;;;18.33;11.05;;;;;;;18.12;64.73;99174.50;5032284;28;20060;-42
2022/11/19 10:56:41;;;;;;;15.07;10.70;;;;;;;18.46;64.92;99178.56;5032781;28;20026;-43
2022/11/19 10:59:22;;;;;;;16.25;10.80;;;;;;;18.92;63.21;99182.09;5032524;28;20185;-44
2022/11/19 11:01:51;;;;;;;17.88;10.60;;;;;;;19.21;61.64;99172.56;5032135;28;20102;-43
2022/11/19 11:04:22;;;;;;;17.40;9.63;;;;;;;19.09;61.01;99159.41;5032642;28;20036;-42
2022/11/19 11:06:53;;;;;;;14.63;9.18;;;;;;;18.71;63.59;99158.91;5032563;28;20029;-42
2022/11/19 11:09:40;;;;;;;15.15;9.85;;;;;;;19.04;60.40;99159.41;5032124;28;20185;-43
2022/11/19 11:15:25;;;;;;;14.40;9.30;;;;;;;18.87;61.11;99159.72;5032736;28;20064;-42
2022/11/19 11:18:09;;;;;;;13.52;9.07;;;;;;;18.44;61.68;99154.59;5032183;28;20036;-44
2022/11/19 11:20:36;;;;;;;17.08;9.90;;;;;;;18.56;62.18;99163.22;5031280;28;20033;-44
2022/11/19 11:23:26;;;;;;;13.93;9.98;;;;;;;18.68;61.94;99157.56;5031567;28;20045;-42
2022/11/19 11:26:11;;;;;;;13.95;8.98;;;;;;;18.61;61.05;99161.59;5030548;28;20061;-44
2022/11/19 11:28:56;;;;;;;13.85;9.48;;;;;;;18.69;62.86;99159.16;5032054;28;20033;-42
2022/11/19 11:31:36;;;;;;;16.20;9.70;;;;;;;18.88;61.70;99161.34;5031338;28;20091;-42
2022/11/19 11:34:03;;;;;;;;;;;;;;;18.95;61.39;99167.25;5032382;28;20477;-42
2022/11/19 11:36:31;;;;;;;15.25;9.75;;;;;;;18.89;61.24;99160.28;5031721;28;19947;-43
2022/11/19 11:38:59;;;;;;;13.73;9.15;;;;;;;18.93;61.89;99161.34;5031580;28;20057;-42
2022/11/19 11:41:33;;;;;;;15.18;10.25;;;;;;;19.01;61.43;99157.28;5031350;28;20469;-43
2022/11/19 11:44:15;;;;;;;17.60;10.00;;;;;;;18.94;62.06;99158.38;5031098;28;20021;-43